Amesbury, United Kingdom

8:08 PM BST on July 29, 2016 (GMT +0100)
Stonehenge | | Change Station

Elev 234 ft 51.17 °N, 1.78 °W | Updated 1 minute ago

Scattered Clouds
Scattered Clouds
66.7 °F
Feels Like 66.7 °F
N
0.0
Wind Variable Wind from SW
Gusts 4.0 mph

Today
High -- | Low -- °F
--% Chance of Precip.
Yesterday
High -- | Low -- °F
Precip. -- in
Pressure 29.89 in
Visibility 6.2 miles
Clouds Few 2200 ft
Scattered Clouds 4800 ft
Dew Point 56 °F
Humidity 69%
Rainfall in
Snow Depth Not available.
5:28 AM 8:57 PM
Waning Crescent, 20% visible
METAR EGHI 291850Z 24009KT 210V270 9999 FEW022 SCT048 18/13 Q1012
Pressure 29.89 in
Visibility 6.2 miles
Clouds Few 2200 ft
Scattered Clouds 4800 ft
Dew Point 56 °F
Humidity 69%
Rainfall in
Snow Depth Not available.
5:28 AM 8:57 PM
Waning Crescent, 20% visible
METAR EGHI 291850Z 24009KT 210V270 9999 FEW022 SCT048 18/13 Q1012

10-Day Weather Forecast

×

Almanac

Astronomy

Jul. 29, 2016 Rise Set
Actual Time
Civil Twilight
Nautical Twilight
Astronomical Twilight
Moon
Length of Visible Light
Length of Day
Tomorrow will be .
, % of the Moon is Illuminated

Today's Extremes

Country Highs Country Lows

Community

WunderPhotos

Upload Photos

1,928,395 photos uploaded!

WunderBlog® & News

Nearby

Air Quality

  Air Quality AQ Index Pollutant
Not available.

Snow Depth

Station Depth Elevation

Earthquake Activity

City Distance Mag. Time & Date
Minimum magnitude displayed is 2.5.

Coastal Water Temperatures

Place Temperature

Stations

Nearby Weather Stations

Station Location Temp. Windchill Dew Point Humidity Wind Precip. Elev Updated Type